Time;durP1;ratioP1;P1;durP2;ratioP2;P2;SDS_P1;SDS_P2;PMS_P1;PMS_P2;Temp;Humidity;BMP_temperature;BMP_pressure;BME280_temperature;BME280_humidity;BME280_pressure;Samples;Min_cycle;Max_cycle;Signal;HPM_P1;HPM_P2
2023/10/23 00:02:08;;;;;;;0.00;0.00;;;11.60;99.90;;;;;;5034216;28;20035;-72
2023/10/23 00:04:34;;;;;;;0.00;0.00;;;11.60;99.90;;;;;;5035838;28;20036;-71
2023/10/23 00:07:00;;;;;;;0.10;0.10;;;11.70;99.90;;;;;;5035189;28;20116;-72
2023/10/23 00:09:25;;;;;;;0.00;0.00;;;11.50;99.90;;;;;;5035032;28;20550;-72
2023/10/23 00:11:51;;;;;;;0.00;0.00;;;11.30;99.90;;;;;;5035432;28;20113;-73
2023/10/23 00:14:17;;;;;;;0.00;0.00;;;11.40;99.90;;;;;;5035341;28;20377;-71
2023/10/23 00:16:43;;;;;;;0.10;0.10;;;11.30;99.90;;;;;;5035368;28;20033;-72
2023/10/23 00:19:08;;;;;;;0.00;0.00;;;11.30;99.90;;;;;;5035304;28;20076;-71
2023/10/23 00:21:34;;;;;;;0.00;0.00;;;11.20;99.90;;;;;;5035267;28;20048;-73
2023/10/23 00:24:00;;;;;;;0.08;0.08;;;11.30;99.90;;;;;;5034394;28;20053;-71
2023/10/23 00:26:26;;;;;;;0.00;0.00;;;11.20;99.90;;;;;;5027148;28;20025;-71
2023/10/23 00:28:53;;;;;;;0.03;0.03;;;11.20;99.90;;;;;;5034935;28;20075;-71
2023/10/23 00:31:19;;;;;;;0.05;0.05;;;11.20;99.90;;;;;;5033854;28;20022;-71
2023/10/23 00:33:44;;;;;;;6.65;1.77;;;11.20;99.90;;;;;;5034693;28;20163;-72
2023/10/23 00:36:10;;;;;;;0.10;0.10;;;11.20;99.90;;;;;;5033546;28;20025;-74
2023/10/23 00:38:36;;;;;;;0.03;0.03;;;11.40;99.90;;;;;;5033043;28;20033;-72
2023/10/23 00:41:02;;;;;;;0.35;0.35;;;11.40;99.90;;;;;;5034773;28;20022;-72
2023/10/23 00:43:27;;;;;;;0.05;0.05;;;11.20;99.90;;;;;;5033339;28;20017;-72
2023/10/23 00:45:58;;;;;;;0.00;0.00;;;11.30;99.90;;;;;;5034685;28;20083;-73
2023/10/23 00:48:26;;;;;;;0.00;0.00;;;11.40;99.90;;;;;;5032418;28;20029;-72
2023/10/23 00:50:58;;;;;;;0.08;0.08;;;11.50;99.90;;;;;;5033512;28;20038;-71
2023/10/23 00:53:27;;;;;;;0.20;0.20;;;11.60;99.90;;;;;;5034657;28;20030;-72
2023/10/23 00:55:56;;;;;;;0.10;0.10;;;11.60;99.90;;;;;;5033422;28;20367;-73
2023/10/23 00:58:27;;;;;;;0.00;0.00;;;11.40;99.90;;;;;;5033214;28;20017;-74
2023/10/23 01:00:55;;;;;;;0.00;0.00;;;11.30;99.90;;;;;;5033764;28;20018;-70
2023/10/23 01:03:21;;;;;;;0.00;0.00;;;11.40;99.90;;;;;;5032876;28;20035;-71
2023/10/23 01:05:47;;;;;;;0.00;0.00;;;11.40;99.90;;;;;;5032460;28;20041;-71
2023/10/23 01:08:13;;;;;;;1.48;1.38;;;11.40;99.90;;;;;;5016113;28;20029;-71
2023/10/23 01:10:40;;;;;;;0.10;0.10;;;11.20;99.90;;;;;;5033207;28;20022;-72
2023/10/23 01:13:09;;;;;;;0.00;0.00;;;11.30;99.90;;;;;;5034361;28;20029;-72
2023/10/23 01:15:35;;;;;;;0.00;0.00;;;11.30;99.90;;;;;;5032831;28;20025;-72
2023/10/23 01:18:01;;;;;;;0.10;0.10;;;11.40;99.90;;;;;;5034087;28;20447;-72
2023/10/23 01:20:30;;;;;;;0.10;0.10;;;11.30;99.90;;;;;;5032497;28;20020;-71
2023/10/23 01:23:01;;;;;;;0.00;0.00;;;11.20;99.90;;;;;;5032926;28;20037;-72
2023/10/23 01:25:28;;;;;;;0.00;0.00;;;11.20;99.90;;;;;;5033973;28;20040;-70
2023/10/23 01:27:54;;;;;;;0.00;0.00;;;11.10;99.90;;;;;;5033820;28;20029;-71
2023/10/23 01:30:21;;;;;;;0.30;0.30;;;11.00;99.90;;;;;;5033767;28;20266;-71
2023/10/23 01:32:47;;;;;;;2.95;2.55;;;11.10;99.90;;;;;;5032446;28;20514;-71
2023/10/23 01:35:13;;;;;;;0.00;0.00;;;11.10;99.90;;;;;;5033473;28;20025;-71
2023/10/23 01:37:41;;;;;;;1.02;1.02;;;11.20;99.90;;;;;;5033705;28;20024;-71
2023/10/23 01:40:09;;;;;;;0.00;0.00;;;11.10;99.90;;;;;;5033885;28;20034;-71
2023/10/23 01:42:35;;;;;;;0.32;0.32;;;11.10;99.90;;;;;;5032484;28;20032;-71
2023/10/23 01:45:00;;;;;;;0.10;0.10;;;11.20;99.90;;;;;;5032014;28;20041;-71
2023/10/23 01:47:27;;;;;;;0.03;0.03;;;11.30;99.90;;;;;;5032215;28;20041;-71
2023/10/23 01:49:53;;;;;;;0.00;0.00;;;11.30;99.90;;;;;;5032011;28;20025;-71
2023/10/23 01:52:19;;;;;;;0.00;0.00;;;11.40;99.90;;;;;;5033573;28;20112;-71
2023/10/23 01:54:45;;;;;;;0.03;0.03;;;11.30;99.90;;;;;;5032087;28;20018;-72
2023/10/23 01:57:14;;;;;;;0.00;0.00;;;11.30;99.90;;;;;;5033309;28;20030;-71
2023/10/23 01:59:40;;;;;;;0.10;0.10;;;11.20;99.90;;;;;;5032007;28;20032;-71
2023/10/23 02:02:06;;;;;;;0.10;0.10;;;11.30;99.90;;;;;;5032111;28;20029;-71
2023/10/23 02:04:34;;;;;;;0.00;0.00;;;11.10;99.90;;;;;;5033112;28;20116;-71
2023/10/23 02:07:00;;;;;;;0.00;0.00;;;11.00;99.90;;;;;;5033104;28;20033;-71
2023/10/23 02:09:28;;;;;;;0.03;0.03;;;11.00;99.90;;;;;;5031895;28;20065;-71
2023/10/23 02:11:54;;;;;;;0.10;0.10;;;11.00;99.90;;;;;;5033105;28;20037;-71
2023/10/23 02:14:19;;;;;;;0.00;0.00;;;11.10;99.90;;;;;;5033218;28;20017;-71
2023/10/23 02:16:45;;;;;;;0.10;0.10;;;11.10;99.90;;;;;;5031413;28;20546;-71
2023/10/23 02:19:11;;;;;;;0.10;0.10;;;11.00;99.90;;;;;;5031912;28;20033;-71
2023/10/23 02:21:37;;;;;;;0.20;0.20;;;11.10;99.90;;;;;;5031764;28;20037;-71
2023/10/23 02:24:03;;;;;;;0.10;0.10;;;11.00;99.90;;;;;;5031706;28;20100;-71
2023/10/23 02:26:29;;;;;;;0.00;0.00;;;10.80;99.90;;;;;;5028211;28;20034;-71
2023/10/23 02:28:55;;;;;;;0.05;0.05;;;10.80;99.90;;;;;;5011721;28;20382;-71
2023/10/23 02:31:22;;;;;;;0.00;0.00;;;10.70;99.90;;;;;;5014533;28;20037;-71
2023/10/23 02:33:49;;;;;;;0.00;0.00;;;10.70;99.90;;;;;;5032698;28;20112;-71
2023/10/23 02:36:15;;;;;;;0.00;0.00;;;10.60;99.90;;;;;;5031394;28;20098;-71
2023/10/23 02:38:41;;;;;;;0.00;0.00;;;10.60;99.90;;;;;;5032843;28;20313;-71
2023/10/23 02:41:07;;;;;;;0.08;0.08;;;10.60;99.90;;;;;;5031325;28;20056;-71
2023/10/23 02:43:33;;;;;;;0.00;0.00;;;10.50;99.90;;;;;;5033013;28;20053;-71
2023/10/23 02:46:02;;;;;;;0.00;0.00;;;10.50;99.90;;;;;;5032430;28;20099;-71
2023/10/23 02:48:28;;;;;;;0.00;0.00;;;10.50;99.90;;;;;;5031974;28;20059;-71
2023/10/23 02:50:55;;;;;;;0.08;0.08;;;10.60;99.90;;;;;;5031417;28;20067;-71
2023/10/23 02:53:21;;;;;;;0.00;0.00;;;10.50;99.90;;;;;;5031339;28;20033;-71
2023/10/23 02:55:48;;;;;;;0.00;0.00;;;10.60;99.90;;;;;;5031407;28;20022;-71
2023/10/23 02:58:14;;;;;;;0.00;0.00;;;10.50;99.90;;;;;;5031368;28;20026;-71
2023/10/23 03:00:42;;;;;;;0.20;0.20;;;10.50;99.90;;;;;;5032480;28;20017;-71
2023/10/23 03:03:11;;;;;;;0.00;0.00;;;10.50;99.90;;;;;;5030976;28;20121;-71
2023/10/23 03:05:38;;;;;;;0.00;0.00;;;10.40;99.90;;;;;;5031335;28;20075;-71
2023/10/23 03:08:05;;;;;;;0.20;0.20;;;10.40;99.90;;;;;;5032339;28;20055;-71
2023/10/23 03:10:31;;;;;;;0.00;0.00;;;10.30;99.90;;;;;;5031219;28;20478;-71
2023/10/23 03:12:57;;;;;;;0.10;0.10;;;10.40;99.90;;;;;;5032388;28;20052;-71
2023/10/23 03:15:24;;;;;;;0.10;0.10;;;10.30;99.90;;;;;;5031382;28;20026;-71
2023/10/23 03:17:50;;;;;;;0.00;0.00;;;10.20;99.90;;;;;;5031689;28;20442;-71
2023/10/23 03:20:16;;;;;;;0.10;0.10;;;10.20;99.90;;;;;;5031035;28;20025;-71
2023/10/23 03:22:42;;;;;;;0.00;0.00;;;10.00;99.90;;;;;;5032352;28;20033;-72
2023/10/23 03:25:09;;;;;;;0.10;0.10;;;10.00;99.90;;;;;;5032032;28;20037;-71
2023/10/23 03:27:35;;;;;;;0.10;0.10;;;10.00;99.90;;;;;;5031547;28;20040;-71
2023/10/23 03:30:00;;;;;;;0.03;0.03;;;10.00;99.90;;;;;;5034829;28;20107;-71
2023/10/23 03:32:26;;;;;;;0.05;0.05;;;10.00;99.90;;;;;;5034557;28;20040;-71
2023/10/23 03:34:52;;;;;;;0.63;0.63;;;10.00;99.90;;;;;;5036178;28;20028;-71
2023/10/23 03:37:18;;;;;;;0.10;0.10;;;10.10;99.90;;;;;;5035972;28;20025;-71
2023/10/23 03:39:45;;;;;;;0.10;0.10;;;10.00;99.90;;;;;;5036655;28;20025;-71
2023/10/23 03:42:11;;;;;;;0.20;0.20;;;10.00;99.90;;;;;;5033294;28;20033;-71
2023/10/23 03:44:37;;;;;;;0.10;0.10;;;10.00;99.90;;;;;;5034548;28;20371;-71
2023/10/23 03:47:04;;;;;;;0.00;0.00;;;9.90;99.90;;;;;;5035336;28;20033;-71
2023/10/23 03:49:31;;;;;;;0.00;0.00;;;9.80;99.90;;;;;;5013058;28;20029;-70
2023/10/23 03:51:56;;;;;;;0.10;0.10;;;9.80;99.90;;;;;;5035627;28;20108;-71
2023/10/23 03:54:22;;;;;;;0.03;0.03;;;9.90;99.90;;;;;;5017787;28;20528;-72
2023/10/23 03:56:48;;;;;;;0.10;0.10;;;9.90;99.90;;;;;;5036063;28;20113;-72
2023/10/23 03:59:14;;;;;;;0.00;0.00;;;9.90;99.90;;;;;;5035669;28;20024;-71
2023/10/23 04:01:40;;;;;;;0.10;0.10;;;9.90;99.90;;;;;;5035486;28;20068;-70
2023/10/23 04:04:07;;;;;;;0.00;0.00;;;9.90;99.90;;;;;;5035236;28;20021;-71
2023/10/23 04:06:33;;;;;;;0.05;0.05;;;9.90;99.90;;;;;;5035200;28;20505;-71
2023/10/23 04:08:59;;;;;;;0.05;0.05;;;9.80;99.90;;;;;;5035199;28;20018;-71
2023/10/23 04:11:26;;;;;;;0.00;0.00;;;9.80;99.90;;;;;;5035268;28;20033;-71
2023/10/23 04:13:52;;;;;;;0.00;0.00;;;9.90;99.90;;;;;;5034204;28;20065;-71
2023/10/23 04:16:18;;;;;;;0.03;0.03;;;9.90;99.90;;;;;;5033626;28;20064;-72
2023/10/23 04:18:44;;;;;;;0.10;0.10;;;9.90;99.90;;;;;;5035182;28;20022;-71
2023/10/23 04:21:11;;;;;;;0.20;0.20;;;9.90;99.90;;;;;;5035047;28;20030;-71
2023/10/23 04:23:38;;;;;;;0.45;0.45;;;9.90;99.90;;;;;;5035108;28;20477;-71
2023/10/23 04:26:05;;;;;;;0.00;0.00;;;9.90;99.90;;;;;;5035036;28;20033;-71
2023/10/23 04:28:31;;;;;;;0.00;0.00;;;9.90;99.90;;;;;;5034983;28;20026;-71
2023/10/23 04:30:57;;;;;;;0.10;0.10;;;10.00;99.90;;;;;;5034886;28;20033;-70
2023/10/23 04:33:23;;;;;;;0.00;0.00;;;10.00;99.90;;;;;;5034630;28;20108;-72
2023/10/23 04:35:56;;;;;;;0.00;0.00;;;9.90;99.90;;;;;;5034971;28;20079;-71
2023/10/23 04:38:24;;;;;;;0.00;0.00;;;9.90;99.90;;;;;;5034406;28;20035;-72
2023/10/23 04:40:50;;;;;;;0.52;0.52;;;9.80;99.90;;;;;;5034987;28;20022;-71
2023/10/23 04:43:16;;;;;;;0.00;0.00;;;9.70;99.90;;;;;;5034586;28;20033;-71
2023/10/23 04:45:42;;;;;;;0.10;0.10;;;9.80;99.90;;;;;;5034184;28;20116;-73
2023/10/23 04:48:09;;;;;;;0.00;0.00;;;9.70;99.90;;;;;;5025809;28;20059;-71
2023/10/23 04:50:39;;;;;;;0.05;0.05;;;9.80;99.90;;;;;;5032073;28;20021;-72
2023/10/23 04:53:05;;;;;;;0.10;0.10;;;9.90;99.90;;;;;;5034561;28;20029;-73
2023/10/23 04:55:36;;;;;;;0.00;0.00;;;9.80;99.90;;;;;;5034530;28;20088;-71
2023/10/23 04:58:02;;;;;;;0.10;0.10;;;9.80;99.90;;;;;;5027553;28;20034;-73
2023/10/23 05:00:29;;;;;;;0.00;0.00;;;9.70;99.90;;;;;;5029189;28;20037;-72
2023/10/23 05:02:55;;;;;;;0.00;0.00;;;9.70;99.90;;;;;;5008745;28;20110;-72
2023/10/23 05:05:21;;;;;;;0.00;0.00;;;9.70;99.90;;;;;;5006951;28;20065;-72
2023/10/23 05:07:47;;;;;;;0.00;0.00;;;9.90;99.90;;;;;;5012908;28;20486;-71
2023/10/23 05:10:13;;;;;;;0.00;0.00;;;9.80;99.90;;;;;;5013380;28;20021;-72
2023/10/23 05:12:39;;;;;;;0.00;0.00;;;9.70;99.90;;;;;;5013933;28;20026;-71
2023/10/23 05:15:08;;;;;;;0.10;0.10;;;9.60;99.90;;;;;;5013225;28;20037;-72
2023/10/23 05:17:34;;;;;;;0.00;0.00;;;9.60;99.90;;;;;;5014280;28;20097;-71
2023/10/23 05:20:01;;;;;;;0.08;0.08;;;9.60;99.90;;;;;;5014077;28;20018;-71
2023/10/23 05:22:27;;;;;;;0.10;0.10;;;9.50;99.90;;;;;;5014276;28;20041;-71
2023/10/23 05:24:53;;;;;;;0.10;0.10;;;9.60;99.90;;;;;;5013992;28;20022;-72
2023/10/23 05:27:18;;;;;;;0.00;0.00;;;9.50;99.90;;;;;;5013949;28;20515;-71
2023/10/23 05:29:44;;;;;;;0.10;0.10;;;9.60;99.90;;;;;;5013818;28;20030;-71
2023/10/23 05:32:10;;;;;;;0.00;0.00;;;9.50;99.90;;;;;;5014250;28;20022;-70
2023/10/23 05:34:36;;;;;;;0.08;0.08;;;9.50;99.90;;;;;;5013779;28;20467;-71
2023/10/23 05:37:02;;;;;;;0.10;0.10;;;9.50;99.90;;;;;;5031467;28;20037;-71
2023/10/23 05:39:28;;;;;;;0.10;0.10;;;9.50;99.90;;;;;;5034103;28;20033;-71
2023/10/23 05:41:54;;;;;;;0.05;0.05;;;9.50;99.90;;;;;;5033355;28;20479;-71
2023/10/23 05:44:20;;;;;;;0.05;0.05;;;9.60;99.90;;;;;;5032399;28;20025;-71
2023/10/23 05:46:46;;;;;;;0.10;0.10;;;9.60;99.90;;;;;;5033519;28;20092;-72
2023/10/23 05:49:11;;;;;;;0.10;0.10;;;9.70;99.90;;;;;;5021686;28;20394;-72
2023/10/23 05:51:37;;;;;;;0.10;0.10;;;9.70;99.90;;;;;;5031837;28;20167;-72
2023/10/23 05:54:03;;;;;;;0.08;0.08;;;9.60;99.90;;;;;;5033442;28;20075;-71
2023/10/23 05:56:29;;;;;;;0.00;0.00;;;9.60;99.90;;;;;;5033083;28;20017;-71
2023/10/23 05:58:55;;;;;;;0.10;0.10;;;9.60;99.90;;;;;;5033328;28;20112;-71
2023/10/23 06:01:21;;;;;;;0.10;0.10;;;9.60;99.90;;;;;;5014211;28;20110;-71
2023/10/23 06:03:47;;;;;;;0.00;0.00;;;9.50;99.90;;;;;;5012147;28;20018;-72
2023/10/23 06:06:13;;;;;;;0.10;0.10;;;9.50;99.90;;;;;;5011675;28;20441;-72
2023/10/23 06:08:39;;;;;;;0.00;0.00;;;9.40;99.90;;;;;;5012251;28;20033;-72
2023/10/23 06:11:10;;;;;;;0.00;0.00;;;9.50;99.90;;;;;;5012285;28;20095;-71
2023/10/23 06:13:35;;;;;;;0.03;0.03;;;9.50;99.90;;;;;;5012199;28;20034;-70
2023/10/23 06:16:04;;;;;;;0.00;0.00;;;9.60;99.90;;;;;;5011239;28;20038;-73
2023/10/23 06:18:34;;;;;;;0.10;0.10;;;9.70;99.90;;;;;;5015578;28;20546;-71
2023/10/23 06:21:05;;;;;;;0.10;0.10;;;9.80;99.90;;;;;;5011831;28;20489;-72
2023/10/23 06:23:39;;;;;;;0.35;0.35;;;9.70;99.90;;;;;;5006713;28;20041;-71
2023/10/23 06:26:08;;;;;;;0.10;0.10;;;9.60;99.90;;;;;;5007194;28;20034;-74
2023/10/23 06:28:35;;;;;;;0.03;0.03;;;9.60;99.90;;;;;;5011311;28;20038;-72
2023/10/23 06:31:08;;;;;;;0.00;0.00;;;9.60;99.90;;;;;;5011864;28;20139;-72
2023/10/23 06:33:38;;;;;;;0.00;0.00;;;9.70;99.90;;;;;;5012553;28;20041;-71
2023/10/23 06:36:06;;;;;;;0.10;0.10;;;9.90;99.90;;;;;;5013364;28;20112;-70
2023/10/23 06:38:31;;;;;;;0.03;0.03;;;9.90;99.90;;;;;;5017767;28;20115;-71
2023/10/23 06:41:07;;;;;;;0.10;0.10;;;9.80;99.90;;;;;;5023550;28;20463;-73
2023/10/23 06:43:34;;;;;;;0.10;0.10;;;9.80;99.90;;;;;;5018835;28;20087;-70
2023/10/23 06:46:00;;;;;;;0.10;0.10;;;9.80;99.90;;;;;;5031301;28;20021;-70
2023/10/23 06:48:26;;;;;;;0.00;0.00;;;9.90;99.90;;;;;;5001850;28;21763;-71
2023/10/23 06:50:53;;;;;;;0.10;0.10;;;9.90;99.90;;;;;;5014973;28;20022;-71
2023/10/23 06:53:20;;;;;;;0.10;0.10;;;9.90;99.90;;;;;;5010162;28;20033;-72
2023/10/23 06:55:54;;;;;;;0.08;0.08;;;10.00;99.90;;;;;;5010439;28;20041;-70
2023/10/23 06:58:20;;;;;;;0.08;0.08;;;10.10;99.90;;;;;;5012000;28;20100;-71
2023/10/23 07:00:47;;;;;;;0.00;0.00;;;10.00;99.90;;;;;;5011617;28;20016;-72
2023/10/23 07:03:14;;;;;;;0.00;0.00;;;10.00;99.90;;;;;;5014144;28;20482;-71
2023/10/23 07:05:40;;;;;;;0.10;0.10;;;10.20;99.90;;;;;;5014811;28;20022;-71
2023/10/23 07:08:06;;;;;;;0.00;0.00;;;10.40;99.90;;;;;;5014286;28;20038;-72
2023/10/23 07:10:34;;;;;;;0.38;0.38;;;10.40;99.90;;;;;;5015946;28;20022;-75
2023/10/23 07:13:00;;;;;;;0.10;0.10;;;10.30;99.90;;;;;;5015975;28;20121;-72
2023/10/23 07:15:26;;;;;;;0.00;0.00;;;10.40;99.90;;;;;;5008381;28;20030;-75
2023/10/23 07:17:52;;;;;;;1.42;1.38;;;10.40;99.90;;;;;;5015407;28;20483;-76
2023/10/23 07:20:18;;;;;;;0.00;0.00;;;10.60;99.90;;;;;;5016019;28;20021;-76
2023/10/23 07:22:44;;;;;;;0.10;0.10;;;10.70;99.90;;;;;;5015323;28;20025;-73
2023/10/23 07:25:11;;;;;;;2.15;2.05;;;10.70;99.90;;;;;;5015597;28;20530;-76
2023/10/23 07:27:39;;;;;;;0.10;0.10;;;10.80;99.90;;;;;;5015577;28;20487;-75
2023/10/23 07:30:06;;;;;;;0.10;0.10;;;10.80;99.90;;;;;;5015759;28;20022;-74
2023/10/23 07:32:34;;;;;;;5.05;2.15;;;10.80;99.90;;;;;;5015575;28;20037;-75
2023/10/23 07:35:00;;;;;;;0.17;0.17;;;10.90;99.90;;;;;;5016278;28;20374;-75
2023/10/23 07:37:27;;;;;;;0.10;0.10;;;11.00;99.90;;;;;;5006074;28;20034;-73
2023/10/23 07:39:53;;;;;;;0.00;0.00;;;11.00;99.90;;;;;;5020515;28;20033;-75
2023/10/23 07:42:19;;;;;;;0.10;0.10;;;11.20;99.90;;;;;;5021388;28;20029;-75
2023/10/23 07:44:45;;;;;;;0.13;0.13;;;11.10;99.90;;;;;;5032300;28;20481;-73
2023/10/23 07:47:11;;;;;;;0.05;0.05;;;11.20;99.90;;;;;;5030618;28;20037;-74
2023/10/23 07:49:37;;;;;;;2.28;2.15;;;11.40;99.90;;;;;;5015288;28;20030;-73
2023/10/23 07:52:03;;;;;;;0.00;0.00;;;11.40;99.90;;;;;;5014570;28;20048;-72
2023/10/23 07:54:31;;;;;;;0.00;0.00;;;11.40;99.90;;;;;;5015450;28;20050;-75
2023/10/23 07:56:57;;;;;;;0.00;0.00;;;11.70;99.90;;;;;;5015340;28;20030;-74
2023/10/23 07:59:23;;;;;;;0.00;0.00;;;11.80;99.90;;;;;;5013729;28;20018;-75
2023/10/23 08:01:52;;;;;;;0.00;0.00;;;11.80;99.90;;;;;;5014952;28;20029;-74
2023/10/23 08:04:20;;;;;;;0.10;0.10;;;12.00;99.90;;;;;;5014611;28;20029;-74
2023/10/23 08:06:46;;;;;;;0.00;0.00;;;12.00;99.90;;;;;;5014281;28;20096;-75
2023/10/23 08:09:12;;;;;;;6.50;0.57;;;12.10;99.90;;;;;;5014393;28;20033;-71
2023/10/23 08:11:38;;;;;;;0.03;0.03;;;12.10;99.90;;;;;;5013865;28;20471;-74
2023/10/23 08:14:04;;;;;;;0.00;0.00;;;12.30;99.90;;;;;;5013980;28;20029;-76
2023/10/23 08:16:31;;;;;;;1.00;0.57;;;12.10;99.90;;;;;;5014802;28;20034;-72
2023/10/23 08:18:57;;;;;;;0.25;0.20;;;12.00;99.90;;;;;;5007891;28;20391;-75
2023/10/23 08:21:25;;;;;;;0.20;0.20;;;12.00;99.90;;;;;;5014177;28;20521;-75
2023/10/23 08:23:58;;;;;;;1.77;0.20;;;11.90;99.90;;;;;;5013345;28;20041;-75
2023/10/23 08:26:24;;;;;;;0.00;0.00;;;12.00;99.90;;;;;;5013705;28;20425;-75
2023/10/23 08:28:50;;;;;;;0.00;0.00;;;12.20;99.90;;;;;;5012400;28;20471;-74
2023/10/23 08:31:17;;;;;;;0.00;0.00;;;12.30;99.90;;;;;;5014061;28;20121;-74
2023/10/23 08:33:43;;;;;;;0.20;0.20;;;12.50;99.90;;;;;;5014450;28;20117;-72
2023/10/23 08:36:09;;;;;;;1.55;1.42;;;12.50;99.90;;;;;;5014876;28;20390;-74
2023/10/23 08:38:34;;;;;;;2.65;2.28;;;12.80;99.90;;;;;;5020255;28;20037;-74
2023/10/23 08:41:03;;;;;;;0.08;0.08;;;12.90;99.90;;;;;;5026153;28;20022;-74
2023/10/23 08:43:30;;;;;;;0.00;0.00;;;13.00;99.90;;;;;;5020772;28;20033;-73
2023/10/23 08:46:00;;;;;;;0.00;0.00;;;12.90;99.90;;;;;;5009265;28;20466;-73
2023/10/23 08:48:26;;;;;;;0.20;0.20;;;12.90;99.90;;;;;;5022365;28;20030;-73
2023/10/23 08:50:55;;;;;;;0.00;0.00;;;13.00;99.90;;;;;;5023814;28;20025;-72
2023/10/23 08:53:25;;;;;;;0.00;0.00;;;13.10;99.90;;;;;;5024029;28;20085;-73
2023/10/23 08:55:51;;;;;;;0.00;0.00;;;13.30;99.90;;;;;;5029801;28;20018;-73
2023/10/23 08:58:19;;;;;;;0.10;0.10;;;13.20;99.90;;;;;;5021866;28;20029;-73
2023/10/23 09:00:46;;;;;;;0.00;0.00;;;13.50;99.90;;;;;;5019143;28;20024;-75
2023/10/23 09:03:12;;;;;;;0.47;0.47;;;13.40;99.90;;;;;;5023401;28;20030;-74
2023/10/23 09:05:38;;;;;;;0.10;0.10;;;13.30;99.90;;;;;;5023911;28;20022;-71
2023/10/23 09:08:04;;;;;;;0.00;0.00;;;13.20;99.90;;;;;;5031870;28;20482;-71
2023/10/23 09:10:30;;;;;;;0.17;0.17;;;13.30;99.90;;;;;;5020400;28;20050;-71
2023/10/23 09:12:56;;;;;;;0.00;0.00;;;13.60;99.90;;;;;;5015202;28;20072;-71
2023/10/23 09:15:24;;;;;;;0.10;0.10;;;13.30;99.90;;;;;;5022308;28;20018;-71
2023/10/23 09:17:51;;;;;;;0.00;0.00;;;13.40;99.90;;;;;;5027423;28;20088;-72
2023/10/23 09:20:19;;;;;;;0.10;0.10;;;13.50;99.90;;;;;;5032215;28;20382;-71
2023/10/23 09:22:49;;;;;;;0.00;0.00;;;13.50;99.90;;;;;;5021265;28;20076;-71
2023/10/23 09:25:19;;;;;;;0.00;0.00;;;13.60;99.90;;;;;;5020422;28;20026;-71
2023/10/23 09:27:45;;;;;;;0.00;0.00;;;13.60;99.90;;;;;;5014993;28;20034;-72
2023/10/23 09:30:21;;;;;;;0.00;0.00;;;13.50;99.90;;;;;;5030774;28;20025;-72
2023/10/23 09:32:55;;;;;;;0.00;0.00;;;13.50;99.90;;;;;;5032886;28;20033;-71
2023/10/23 09:35:24;;;;;;;0.00;0.00;;;13.60;99.90;;;;;;5033234;28;20040;-71
2023/10/23 09:37:50;;;;;;;0.00;0.00;;;13.40;99.90;;;;;;5015464;28;20061;-71
2023/10/23 09:40:17;;;;;;;0.30;0.20;;;13.50;99.90;;;;;;5033405;28;20025;-72
2023/10/23 09:42:43;;;;;;;0.00;0.00;;;13.60;99.90;;;;;;5032637;28;20037;-71
2023/10/23 09:45:10;;;;;;;0.20;0.20;;;13.60;99.90;;;;;;5033435;28;20109;-71
2023/10/23 09:47:36;;;;;;;0.90;0.65;;;13.60;99.90;;;;;;5028062;28;20172;-72
2023/10/23 09:50:03;;;;;;;2.83;0.63;;;13.70;99.90;;;;;;5026137;28;20537;-72
2023/10/23 09:52:33;;;;;;;0.20;0.20;;;13.90;99.90;;;;;;5033592;28;20050;-71
2023/10/23 09:55:03;;;;;;;0.10;0.10;;;14.00;99.90;;;;;;5033309;28;20076;-71
2023/10/23 09:57:37;;;;;;;0.25;0.25;;;13.90;99.90;;;;;;5033471;28;20033;-71
2023/10/23 10:00:16;;;;;;;0.00;0.00;;;13.80;99.90;;;;;;5033419;28;20024;-71
2023/10/23 10:02:55;;;;;;;0.70;0.70;;;13.80;99.90;;;;;;5033027;28;20034;-71
2023/10/23 10:05:37;;;;;;;0.00;0.00;;;13.80;99.90;;;;;;5033271;28;20041;-73
2023/10/23 10:08:26;;;;;;;1.60;1.55;;;14.00;99.90;;;;;;5033168;28;20030;-71
2023/10/23 10:10:53;;;;;;;0.20;0.20;;;14.20;99.90;;;;;;5032040;28;20033;-72
2023/10/23 10:13:20;;;;;;;0.10;0.10;;;14.30;99.90;;;;;;5031990;28;20371;-71
2023/10/23 10:15:49;;;;;;;0.00;0.00;;;14.30;99.90;;;;;;5033013;28;20082;-72
2023/10/23 10:18:16;;;;;;;0.43;0.43;;;14.50;99.90;;;;;;5032961;28;20116;-71
2023/10/23 10:20:47;;;;;;;0.00;0.00;;;14.50;99.90;;;;;;5031882;28;20517;-72
2023/10/23 10:23:15;;;;;;;0.00;0.00;;;14.90;99.90;;;;;;5033019;28;20029;-72
2023/10/23 10:25:46;;;;;;;0.10;0.10;;;14.90;99.90;;;;;;5033105;28;20017;-71
2023/10/23 10:28:13;;;;;;;0.77;0.37;;;14.90;99.90;;;;;;5031507;28;20037;-71
2023/10/23 10:30:42;;;;;;;0.08;0.08;;;14.80;99.90;;;;;;5028518;28;20385;-71
2023/10/23 10:33:25;;;;;;;0.20;0.20;;;14.80;99.90;;;;;;5033991;28;20405;-72
2023/10/23 10:36:05;;;;;;;0.00;0.00;;;14.90;99.90;;;;;;5020297;28;20025;-73
2023/10/23 10:38:32;;;;;;;0.17;0.17;;;14.90;99.90;;;;;;5032686;28;20042;-72
2023/10/23 10:41:03;;;;;;;0.10;0.10;;;14.70;99.90;;;;;;5031843;28;20017;-72
2023/10/23 10:43:34;;;;;;;0.00;0.00;;;14.90;99.90;;;;;;5032823;28;20471;-72
2023/10/23 10:46:04;;;;;;;0.10;0.10;;;14.60;99.90;;;;;;5020448;28;20389;-71
2023/10/23 10:48:46;;;;;;;0.00;0.00;;;14.60;99.90;;;;;;5021046;28;20593;-71
2023/10/23 10:51:17;;;;;;;0.05;0.05;;;14.60;99.90;;;;;;5009630;28;20036;-71
2023/10/23 10:53:45;;;;;;;0.00;0.00;;;14.80;99.90;;;;;;5032708;28;20087;-72
2023/10/23 10:56:12;;;;;;;0.00;0.00;;;14.80;99.90;;;;;;5032459;28;20045;-71
2023/10/23 10:58:43;;;;;;;0.00;0.00;;;14.80;99.90;;;;;;5032801;28;20080;-71
2023/10/23 11:01:09;;;;;;;2.95;1.05;;;14.70;99.90;;;;;;5032279;28;20044;-72
2023/10/23 11:03:36;;;;;;;0.65;0.63;;;14.70;99.90;;;;;;5031319;28;20030;-71
2023/10/23 11:06:06;;;;;;;0.00;0.00;;;14.80;99.90;;;;;;5030659;28;20080;-72
2023/10/23 11:08:33;;;;;;;0.00;0.00;;;14.80;99.90;;;;;;5032480;28;20034;-72
2023/10/23 11:11:06;;;;;;;0.17;0.10;;;14.70;99.90;;;;;;5032593;28;20033;-71
2023/10/23 11:13:33;;;;;;;0.00;0.00;;;14.70;99.90;;;;;;5032559;28;20037;-71
2023/10/23 11:16:00;;;;;;;0.00;0.00;;;15.00;99.90;;;;;;5032141;28;20025;-72
2023/10/23 11:18:28;;;;;;;0.90;0.90;;;15.10;99.90;;;;;;5014718;28;20493;-71
2023/10/23 11:21:00;;;;;;;0.47;0.20;;;15.10;99.90;;;;;;5016492;28;20026;-71
2023/10/23 11:23:30;;;;;;;0.08;0.08;;;15.20;99.90;;;;;;5011257;28;20030;-72
2023/10/23 11:25:56;;;;;;;0.00;0.00;;;15.50;99.90;;;;;;5011563;28;20046;-72
2023/10/23 11:28:23;;;;;;;0.00;0.00;;;15.40;99.90;;;;;;5010400;28;20099;-71
2023/10/23 11:30:57;;;;;;;0.52;0.52;;;15.40;99.90;;;;;;5011950;28;20034;-71
2023/10/23 11:33:23;;;;;;;0.20;0.20;;;15.40;99.90;;;;;;5011215;28;20124;-72
2023/10/23 11:35:49;;;;;;;0.00;0.00;;;15.20;99.90;;;;;;5018592;28;20124;-72
2023/10/23 11:38:17;;;;;;;2.67;0.70;;;15.30;99.90;;;;;;5012739;28;20167;-71
2023/10/23 11:40:44;;;;;;;0.00;0.00;;;15.10;99.90;;;;;;5016843;28;20049;-73
2023/10/23 11:43:13;;;;;;;0.00;0.00;;;15.30;99.90;;;;;;5018091;28;20030;-71
2023/10/23 11:45:40;;;;;;;0.00;0.00;;;15.50;99.90;;;;;;5023329;28;20036;-71
2023/10/23 11:48:07;;;;;;;0.00;0.00;;;15.70;99.90;;;;;;5020187;28;20133;-72
2023/10/23 11:50:37;;;;;;;1.25;0.95;;;15.60;99.90;;;;;;5025674;28;20017;-72
2023/10/23 11:53:04;;;;;;;0.00;0.00;;;15.30;99.90;;;;;;5020049;28;20470;-72
2023/10/23 11:55:30;;;;;;;0.00;0.00;;;15.30;99.90;;;;;;5031847;28;20053;-72
2023/10/23 11:57:58;;;;;;;0.00;0.00;;;15.10;99.90;;;;;;5029017;28;20025;-72
2023/10/23 12:00:24;;;;;;;0.10;0.10;;;15.20;99.90;;;;;;5032951;28;20037;-71
2023/10/23 12:02:50;;;;;;;0.00;0.00;;;15.10;99.90;;;;;;5018845;28;20025;-72
2023/10/23 12:05:23;;;;;;;0.30;0.30;;;15.30;99.90;;;;;;5020628;28;20470;-76
2023/10/23 12:07:56;;;;;;;0.20;0.20;;;15.20;99.90;;;;;;5028035;28;20041;-76
2023/10/23 12:10:26;;;;;;;1.08;0.70;;;15.30;99.90;;;;;;5032205;28;20029;-74
2023/10/23 12:12:53;;;;;;;5.05;0.20;;;15.10;99.90;;;;;;5030652;28;20387;-71
2023/10/23 12:15:19;;;;;;;2.28;0.32;;;15.10;99.90;;;;;;5018892;28;20033;-71
2023/10/23 12:17:45;;;;;;;0.10;0.10;;;15.20;99.90;;;;;;5022671;28;20025;-71
2023/10/23 12:20:14;;;;;;;0.25;0.25;;;15.20;99.90;;;;;;5023742;28;20028;-71
2023/10/23 12:22:44;;;;;;;0.00;0.00;;;15.40;99.90;;;;;;5029275;28;20441;-76
2023/10/23 12:25:10;;;;;;;0.30;0.30;;;15.30;99.90;;;;;;5029099;28;20386;-75
2023/10/23 12:27:38;;;;;;;0.30;0.30;;;15.30;99.90;;;;;;5019061;28;20057;-75
2023/10/23 12:30:05;;;;;;;2.53;0.45;;;15.30;99.90;;;;;;5012989;28;20053;-75
2023/10/23 12:32:32;;;;;;;0.00;0.00;;;15.30;99.90;;;;;;5029255;28;20134;-76
2023/10/23 12:34:59;;;;;;;1.35;1.30;;;15.20;99.90;;;;;;5033078;28;20017;-76
2023/10/23 12:37:32;;;;;;;0.00;0.00;;;15.20;99.90;;;;;;5034116;28;20076;-76
2023/10/23 12:40:00;;;;;;;0.00;0.00;;;15.20;99.90;;;;;;5034832;28;20029;-74
2023/10/23 12:42:28;;;;;;;0.00;0.00;;;15.40;99.90;;;;;;5033267;28;20036;-76
2023/10/23 12:44:55;;;;;;;0.00;0.00;;;15.40;99.90;;;;;;5009115;28;20120;-74
2023/10/23 12:47:24;;;;;;;0.00;0.00;;;15.30;99.90;;;;;;5013881;28;20052;-75
2023/10/23 12:49:49;;;;;;;0.03;0.03;;;15.20;99.90;;;;;;5014495;28;20022;-75
2023/10/23 12:52:15;;;;;;;7.47;0.70;;;15.40;99.90;;;;;;5014115;28;20516;-76